Terminal Aerodrome Forecast
Issued by NWS

Home | Current Version | Previous Version | Text Only | Print | Product List | Glossary On
Versions: 1 2 3 4 5 6 7 8 9 10 11 12 13 14
000
FTUS45 KABQ 232333
TAFLVS
TAF
KLVS 232333Z 2400/2424 25025G35KT P6SM SKC
      TEMPO 2400/2402 26030G42KT
     FM240500 26032G42KT P6SM BKN090
     FM241100 31023G33KT P6SM BKN070
     FM241700 34020G30KT P6SM BKN060=

USA.gov is the U.S. government's official web portal to all federal, state and local government web resources and services.